createdAt,value
2016-09-13T12:47:24.184Z,74400
2016-09-13T12:47:32.909Z,74402
2016-09-13T12:47:41.626Z,74404
2016-09-13T12:47:50.344Z,74407
2016-09-13T12:47:59.043Z,74403
2016-09-13T12:48:07.757Z,74405
2016-09-13T12:48:16.482Z,74403
2016-09-13T12:48:25.231Z,74407
2016-09-13T12:48:33.956Z,74402
2016-09-13T12:48:42.682Z,74377
2016-09-13T12:48:51.431Z,74346
2016-09-13T12:49:00.158Z,74339
2016-09-13T12:49:08.865Z,74338
2016-09-13T12:49:17.595Z,74344
2016-09-13T12:49:26.283Z,74348
2016-09-13T12:49:35.028Z,74349
2016-09-13T12:49:43.745Z,74352
2016-09-13T12:49:52.468Z,74347
2016-09-13T12:50:01.175Z,74347
2016-09-13T12:50:09.887Z,74346
2016-09-13T12:50:18.568Z,74354
2016-09-13T12:50:27.248Z,74352
2016-09-13T12:50:35.935Z,74347
2016-09-13T12:50:44.637Z,74343
2016-09-13T12:50:53.650Z,74348
2016-09-13T12:51:02.401Z,74348
2016-09-13T12:51:11.085Z,74373
2016-09-13T12:51:19.815Z,74391
2016-09-13T12:51:28.537Z,74401
2016-09-13T12:51:37.279Z,74405
2016-09-13T12:51:45.977Z,74398
2016-09-13T12:51:54.691Z,74398
2016-09-13T12:52:03.397Z,74393
2016-09-13T12:52:12.124Z,74396
2016-09-13T12:52:20.802Z,74377
2016-09-13T12:52:29.531Z,74345
2016-09-13T12:52:38.235Z,74319
2016-09-13T12:52:46.948Z,74337
2016-09-13T12:52:55.699Z,74338
2016-09-13T12:53:04.415Z,74335
2016-09-13T12:53:13.456Z,74335
2016-09-13T12:53:22.191Z,74339
2016-09-13T12:53:30.940Z,74341
2016-09-13T12:53:39.674Z,74348
2016-09-13T12:53:48.355Z,74346
2016-09-13T12:53:57.050Z,74345
2016-09-13T12:54:05.818Z,74349
2016-09-13T12:54:14.811Z,74348
2016-09-13T12:54:23.528Z,74349
2016-09-13T12:54:32.262Z,74343
2016-09-13T12:54:41.007Z,74346
2016-09-13T12:54:49.756Z,74351
2016-09-13T12:54:58.437Z,74353
2016-09-13T12:55:07.148Z,74354
2016-09-13T12:55:15.891Z,74354
2016-09-13T12:55:24.591Z,74350
2016-09-13T12:55:33.275Z,74350
2016-09-13T12:55:41.990Z,74351
2016-09-13T12:55:50.681Z,74356
2016-09-13T12:55:59.383Z,74358
2016-09-13T12:56:08.058Z,74354
2016-09-13T12:56:16.770Z,74356
2016-09-13T12:56:25.511Z,74354
2016-09-13T12:56:34.205Z,74353
2016-09-13T12:56:42.958Z,74354
2016-09-13T12:56:51.653Z,74355
2016-09-13T12:57:00.381Z,74353
2016-09-13T12:57:09.072Z,74352
2016-09-13T12:57:17.748Z,74351
2016-09-13T12:57:26.764Z,74349
2016-09-13T12:57:35.507Z,74348
2016-09-13T12:57:44.237Z,74352
2016-09-13T12:57:52.981Z,74355
2016-09-13T12:58:01.686Z,74352
2016-09-13T12:58:10.368Z,74352
2016-09-13T12:58:19.079Z,74355
2016-09-13T12:58:27.847Z,74354
2016-09-13T12:58:36.567Z,74349
2016-09-13T12:58:45.267Z,74350
2016-09-13T12:58:53.972Z,74353
2016-09-13T12:59:02.667Z,74355
2016-09-13T12:59:11.328Z,74356
2016-09-13T12:59:20.036Z,74354
2016-09-13T12:59:29.071Z,74357
2016-09-13T12:59:37.844Z,74358
2016-09-13T12:59:46.555Z,74356
2016-09-13T12:59:55.273Z,74361
2016-09-13T13:00:04.003Z,74361
2016-09-13T13:00:12.699Z,74363
2016-09-13T13:00:21.446Z,74363
2016-09-13T13:00:30.147Z,74365
2016-09-13T13:00:38.869Z,74367
2016-09-13T13:00:47.568Z,74364
2016-09-13T13:00:56.307Z,74364
2016-09-13T13:01:05.003Z,74362
2016-09-13T13:01:13.696Z,74365
2016-09-13T13:01:22.433Z,74359
2016-09-13T13:01:31.172Z,74359
2016-09-13T13:01:39.894Z,74361
2016-09-13T13:01:48.607Z,74361
2016-09-13T13:01:57.302Z,74361
2016-09-13T13:02:05.985Z,74363
2016-09-13T13:02:14.710Z,74364
2016-09-13T13:02:23.413Z,74363
2016-09-13T13:02:32.137Z,74361
2016-09-13T13:02:40.854Z,74364
2016-09-13T13:02:49.571Z,74364
2016-09-13T13:02:58.288Z,74362
2016-09-13T13:03:07.013Z,74366
2016-09-13T13:03:15.754Z,74378
2016-09-13T13:03:24.458Z,74382
2016-09-13T13:03:33.160Z,74382
2016-09-13T13:03:41.843Z,74380
2016-09-13T13:03:50.541Z,74397
2016-09-13T13:03:59.218Z,74402
2016-09-13T13:04:07.911Z,74397
2016-09-13T13:04:16.634Z,74376
2016-09-13T13:04:25.358Z,74358
2016-09-13T13:04:34.082Z,74353
2016-09-13T13:04:42.786Z,74346
2016-09-13T13:04:51.521Z,74345
2016-09-13T13:05:00.223Z,74343
2016-09-13T13:05:08.884Z,74345
2016-09-13T13:05:17.626Z,74345
2016-09-13T13:05:26.335Z,74344
2016-09-13T13:05:35.082Z,74354
2016-09-13T13:05:43.800Z,74352
2016-09-13T13:05:52.526Z,74348
2016-09-13T13:06:01.216Z,74351
2016-09-13T13:06:09.940Z,74351
2016-09-13T13:06:18.670Z,74350
2016-09-13T13:06:27.387Z,74354
2016-09-13T13:06:36.089Z,74357
2016-09-13T13:06:44.770Z,74358
2016-09-13T13:06:53.502Z,74359
2016-09-13T13:07:02.224Z,74359
2016-09-13T13:07:10.909Z,74355
2016-09-13T13:07:19.893Z,74360
2016-09-13T13:07:28.639Z,74361
2016-09-13T13:07:37.338Z,74360
2016-09-13T13:07:46.077Z,74362
2016-09-13T13:07:54.819Z,74360
2016-09-13T13:08:03.542Z,74361
2016-09-13T13:08:12.258Z,74363
2016-09-13T13:08:20.969Z,74361
2016-09-13T13:08:29.658Z,74361
2016-09-13T13:08:38.373Z,74361
2016-09-13T13:08:47.072Z,74360
2016-09-13T13:08:55.803Z,74360
2016-09-13T13:09:04.501Z,74356
2016-09-13T13:09:13.184Z,74359
2016-09-13T13:09:21.874Z,74357
2016-09-13T13:09:30.562Z,74357
2016-09-13T13:09:39.259Z,74358
2016-09-13T13:09:47.963Z,74358
2016-09-13T13:09:56.699Z,74355
2016-09-13T13:10:05.402Z,74349
2016-09-13T13:10:14.111Z,74354
2016-09-13T13:10:22.824Z,74352
2016-09-13T13:10:31.516Z,74353
2016-09-13T13:10:40.533Z,74352
2016-09-13T13:10:49.300Z,74353
2016-09-13T13:10:57.972Z,74352
2016-09-13T13:11:06.671Z,74352
2016-09-13T13:11:15.389Z,74350
2016-09-13T13:11:24.108Z,74352
2016-09-13T13:11:32.838Z,74351
2016-09-13T13:11:41.555Z,74354
2016-09-13T13:11:50.264Z,74349
2016-09-13T13:11:58.981Z,74349
2016-09-13T13:12:07.714Z,74350
2016-09-13T13:12:16.459Z,74345
2016-09-13T13:12:25.176Z,74347
2016-09-13T13:12:33.947Z,74342
2016-09-13T13:12:42.689Z,74346
2016-09-13T13:12:51.378Z,74349
2016-09-13T13:13:00.097Z,74348
2016-09-13T13:13:09.079Z,74345
2016-09-13T13:13:17.778Z,74343
2016-09-13T13:13:26.482Z,74345
2016-09-13T13:13:35.203Z,74351
2016-09-13T13:13:43.955Z,74349
2016-09-13T13:13:52.704Z,74351
2016-09-13T13:14:01.429Z,74367
2016-09-13T13:14:10.174Z,74398
2016-09-13T13:14:18.876Z,74395
2016-09-13T13:14:27.579Z,74358
2016-09-13T13:14:36.311Z,74350
2016-09-13T13:14:45.044Z,74345
2016-09-13T13:14:53.744Z,74349
2016-09-13T13:15:02.471Z,74345
2016-09-13T13:15:11.178Z,74345
2016-09-13T13:15:19.903Z,74343
2016-09-13T13:15:28.627Z,74340
2016-09-13T13:15:37.331Z,74342
2016-09-13T13:15:46.055Z,74343
2016-09-13T13:15:54.788Z,74346
2016-09-13T13:16:03.507Z,74348
2016-09-13T13:16:12.217Z,74346
2016-09-13T13:16:20.913Z,74348
2016-09-13T13:16:29.605Z,74348
2016-09-13T13:16:38.292Z,74352
2016-09-13T13:16:47.009Z,74350
2016-09-13T13:16:55.747Z,74352
2016-09-13T13:17:04.487Z,74356
2016-09-13T13:17:13.228Z,74355
2016-09-13T13:17:21.938Z,74358
2016-09-13T13:17:30.660Z,74357
2016-09-13T13:17:39.372Z,74357
2016-09-13T13:17:48.076Z,74358
2016-09-13T13:17:56.779Z,74371
2016-09-13T13:18:05.490Z,74367
2016-09-13T13:18:14.220Z,74363
2016-09-13T13:18:22.922Z,74357
2016-09-13T13:18:31.905Z,74354
2016-09-13T13:18:40.590Z,74354
2016-09-13T13:18:49.274Z,74358
2016-09-13T13:18:57.967Z,74357
2016-09-13T13:19:06.675Z,74354
2016-09-13T13:19:15.414Z,74352
2016-09-13T13:19:24.135Z,74350
2016-09-13T13:19:32.867Z,74351
2016-09-13T13:19:41.613Z,74352
2016-09-13T13:19:50.302Z,74357
2016-09-13T13:19:59.035Z,74356
2016-09-13T13:20:07.715Z,74357
2016-09-13T13:20:16.705Z,74358
2016-09-13T13:20:25.400Z,74355
2016-09-13T13:20:34.116Z,74354
2016-09-13T13:20:42.863Z,74352
2016-09-13T13:20:51.629Z,74351
2016-09-13T13:21:00.362Z,74351
2016-09-13T13:21:09.066Z,74355
2016-09-13T13:21:17.828Z,74353
2016-09-13T13:21:26.503Z,74354
2016-09-13T13:21:35.231Z,74355
2016-09-13T13:21:43.912Z,74353
2016-09-13T13:21:52.657Z,74357
2016-09-13T13:22:01.382Z,74354
2016-09-13T13:22:10.099Z,74360
2016-09-13T13:22:18.808Z,74357
2016-09-13T13:22:27.533Z,74354
2016-09-13T13:22:36.256Z,74354
2016-09-13T13:22:44.970Z,74352
2016-09-13T13:22:53.694Z,74357
2016-09-13T13:23:02.402Z,74358
2016-09-13T13:23:11.123Z,74357
2016-09-13T13:23:19.834Z,74357
2016-09-13T13:23:28.577Z,74360
2016-09-13T13:23:37.284Z,74359
2016-09-13T13:23:46.009Z,74359
2016-09-13T13:23:54.741Z,74360
2016-09-13T13:24:03.745Z,74359
2016-09-13T13:24:12.495Z,74361
2016-09-13T13:24:21.204Z,74359
2016-09-13T13:24:29.942Z,74360
2016-09-13T13:24:38.679Z,74358
2016-09-13T13:24:47.369Z,74356
2016-09-13T13:24:56.063Z,74357
2016-09-13T13:25:04.746Z,74355
2016-09-13T13:25:13.472Z,74354
2016-09-13T13:25:22.176Z,74354
2016-09-13T13:25:30.900Z,74354
2016-09-13T13:25:39.646Z,74359
2016-09-13T13:25:48.348Z,74362
2016-09-13T13:25:57.063Z,74363
2016-09-13T13:26:05.790Z,74362
2016-09-13T13:26:14.494Z,74361
2016-09-13T13:26:23.191Z,74363
2016-09-13T13:26:31.904Z,74360
2016-09-13T13:26:40.600Z,74359
2016-09-13T13:26:49.285Z,74357
2016-09-13T13:26:57.986Z,74359
2016-09-13T13:27:06.756Z,74358
2016-09-13T13:27:15.458Z,74357
2016-09-13T13:27:24.178Z,74360
2016-09-13T13:27:32.867Z,74358
2016-09-13T13:27:41.612Z,74359
2016-09-13T13:27:50.338Z,74355
2016-09-13T13:27:59.080Z,74356
2016-09-13T13:28:07.769Z,74355
2016-09-13T13:28:16.511Z,74356
2016-09-13T13:28:25.210Z,74355
2016-09-13T13:28:33.928Z,74356
2016-09-13T13:28:42.644Z,74353
2016-09-13T13:28:51.353Z,74356
2016-09-13T13:29:00.062Z,74354
2016-09-13T13:29:08.790Z,74354
2016-09-13T13:29:17.512Z,74355
2016-09-13T13:29:26.227Z,74359
2016-09-13T13:29:34.886Z,74356
2016-09-13T13:29:43.573Z,74358
2016-09-13T13:29:52.258Z,74357
2016-09-13T13:30:00.963Z,74356
2016-09-13T13:30:09.681Z,74357
2016-09-13T13:30:18.399Z,74356
2016-09-13T13:30:27.386Z,74356
2016-09-13T13:30:36.090Z,74358
2016-09-13T13:30:44.769Z,74359
2016-09-13T13:30:53.456Z,74358
2016-09-13T13:31:02.145Z,74359
2016-09-13T13:31:10.839Z,74360
2016-09-13T13:31:19.507Z,74365
2016-09-13T13:31:28.224Z,74359
2016-09-13T13:31:36.926Z,74361
2016-09-13T13:31:45.633Z,74359
2016-09-13T13:31:54.346Z,74361
2016-09-13T13:32:03.031Z,74361
2016-09-13T13:32:11.778Z,74358
2016-09-13T13:32:20.516Z,74357
2016-09-13T13:32:29.212Z,74355
2016-09-13T13:32:37.934Z,74356
2016-09-13T13:32:46.644Z,74356
2016-09-13T13:32:55.327Z,74357
2016-09-13T13:33:04.059Z,74352
2016-09-13T13:33:12.788Z,74346
2016-09-13T13:33:21.497Z,74349
2016-09-13T13:33:30.234Z,74348
2016-09-13T13:33:38.917Z,74349
2016-09-13T13:33:47.601Z,74349
2016-09-13T13:33:56.318Z,74351
2016-09-13T13:34:05.049Z,74349
2016-09-13T13:34:13.772Z,74351
2016-09-13T13:34:22.465Z,74350
2016-09-13T13:34:31.149Z,74353
2016-09-13T13:34:39.893Z,74348
2016-09-13T13:34:48.575Z,74350
2016-09-13T13:34:57.233Z,74351
2016-09-13T13:35:05.924Z,74346
2016-09-13T13:35:14.641Z,74349
2016-09-13T13:35:23.347Z,74344
2016-09-13T13:35:32.088Z,74343
2016-09-13T13:35:40.814Z,74343
2016-09-13T13:35:49.509Z,74345
2016-09-13T13:35:58.218Z,74345
2016-09-13T13:36:06.920Z,74345
2016-09-13T13:36:15.675Z,74347
2016-09-13T13:36:24.659Z,74345
2016-09-13T13:36:33.343Z,74348
2016-09-13T13:36:42.066Z,74350
2016-09-13T13:36:50.794Z,74349
2016-09-13T13:36:59.822Z,74350
2016-09-13T13:37:08.500Z,74350
2016-09-13T13:37:17.211Z,74352
2016-09-13T13:37:25.926Z,74349
2016-09-13T13:37:34.604Z,74351
2016-09-13T13:37:43.305Z,74347
2016-09-13T13:37:51.968Z,74352
2016-09-13T13:38:00.692Z,74350
2016-09-13T13:38:09.394Z,74351
2016-09-13T13:38:18.086Z,74350
2016-09-13T13:38:26.742Z,74348
2016-09-13T13:38:35.453Z,74347
2016-09-13T13:38:44.135Z,74348
2016-09-13T13:38:52.841Z,74350
2016-09-13T13:39:01.563Z,74350
2016-09-13T13:39:10.288Z,74348
2016-09-13T13:39:18.990Z,74349
2016-09-13T13:39:27.719Z,74350
2016-09-13T13:39:36.448Z,74347
2016-09-13T13:39:45.168Z,74349
2016-09-13T13:39:53.879Z,74346
2016-09-13T13:40:02.597Z,74345
2016-09-13T13:40:11.321Z,74347
2016-09-13T13:40:20.046Z,74346
2016-09-13T13:40:29.231Z,74345
2016-09-13T13:40:37.932Z,74347
2016-09-13T13:40:46.655Z,74344
2016-09-13T13:40:55.337Z,74349
2016-09-13T13:41:03.998Z,74347
2016-09-13T13:41:12.968Z,74346
2016-09-13T13:41:21.659Z,74347
2016-09-13T13:41:30.363Z,74346
2016-09-13T13:41:39.103Z,74344
2016-09-13T13:41:47.838Z,74348
2016-09-13T13:41:56.605Z,74346
2016-09-13T13:42:05.880Z,74346
2016-09-13T13:42:14.563Z,74349
2016-09-13T13:42:23.315Z,74348
2016-09-13T13:42:32.051Z,74350
2016-09-13T13:42:40.764Z,74351
2016-09-13T13:42:49.457Z,74349
2016-09-13T13:42:58.159Z,74351
2016-09-13T13:43:06.890Z,74350
2016-09-13T13:43:15.635Z,74352
2016-09-13T13:43:24.346Z,74349
2016-09-13T13:43:33.041Z,74347
2016-09-13T13:43:41.764Z,74349
2016-09-13T13:43:50.461Z,74350
2016-09-13T13:43:59.175Z,74347
2016-09-13T13:44:07.916Z,74348
2016-09-13T13:44:16.640Z,74349
2016-09-13T13:44:25.671Z,74347
2016-09-13T13:44:34.416Z,74349
2016-09-13T13:44:43.177Z,74349
2016-09-13T13:44:51.910Z,74354
2016-09-13T13:45:00.606Z,74356
2016-09-13T13:45:09.340Z,74362
2016-09-13T13:45:18.100Z,74363
2016-09-13T13:45:26.825Z,74367
2016-09-13T13:45:35.546Z,74358
2016-09-13T13:45:44.243Z,74350
2016-09-13T13:45:52.983Z,74352
2016-09-13T13:46:01.742Z,74373
2016-09-13T13:46:10.406Z,74380
2016-09-13T13:46:19.072Z,74363
2016-09-13T13:46:27.797Z,74347
2016-09-13T13:46:36.545Z,74341
2016-09-13T13:46:45.251Z,74340
2016-09-13T13:46:53.949Z,74344
2016-09-13T13:47:02.651Z,74340
2016-09-13T13:47:11.373Z,74347
2016-09-13T13:47:20.055Z,74343
2016-09-13T13:47:30.324Z,74344
2016-09-13T13:47:39.016Z,74341
2016-09-13T13:47:47.740Z,74341
2016-09-13T13:47:56.496Z,74348
2016-09-13T13:48:05.228Z,74342
2016-09-13T13:48:13.952Z,74342
2016-09-13T13:48:22.979Z,74344
2016-09-13T13:48:31.694Z,74344
2016-09-13T13:48:40.396Z,74344
2016-09-13T13:48:49.128Z,74345
2016-09-13T13:48:57.844Z,74346
2016-09-13T13:49:06.521Z,74347
2016-09-13T13:49:15.204Z,74345
2016-09-13T13:49:23.901Z,74344
2016-09-13T13:49:32.583Z,74347
2016-09-13T13:49:41.290Z,74348
2016-09-13T13:49:50.007Z,74347
2016-09-13T13:49:58.715Z,74357
2016-09-13T13:50:07.731Z,74378
2016-09-13T13:50:16.742Z,74390
2016-09-13T13:50:25.454Z,74390
2016-09-13T13:50:34.146Z,74391
2016-09-13T13:50:42.819Z,74394
2016-09-13T13:50:51.496Z,74399
2016-09-13T13:51:00.178Z,74397
2016-09-13T13:51:08.904Z,74400
2016-09-13T13:51:17.630Z,74390
2016-09-13T13:51:26.325Z,74371
2016-09-13T13:51:35.020Z,74349
2016-09-13T13:51:43.735Z,74332
2016-09-13T13:51:52.447Z,74334
2016-09-13T13:52:01.172Z,74330
2016-09-13T13:52:10.211Z,74333
2016-09-13T13:52:18.915Z,74333
2016-09-13T13:52:27.657Z,74334
2016-09-13T13:52:36.339Z,74333
2016-09-13T13:52:45.078Z,74338
2016-09-13T13:52:53.790Z,74335
2016-09-13T13:53:02.516Z,74334
2016-09-13T13:53:11.267Z,74334
2016-09-13T13:53:19.970Z,74333
2016-09-13T13:53:28.676Z,74337
2016-09-13T13:53:37.716Z,74328
2016-09-13T13:53:46.375Z,74339
2016-09-13T13:53:55.087Z,74338
2016-09-13T13:54:04.061Z,74336
2016-09-13T13:54:12.743Z,74335
2016-09-13T13:54:21.485Z,74335
2016-09-13T13:54:30.183Z,74335
2016-09-13T13:54:38.911Z,74337
2016-09-13T13:54:47.631Z,74339
2016-09-13T13:54:56.317Z,74333
2016-09-13T13:55:05.004Z,74339
2016-09-13T13:55:13.728Z,74343
2016-09-13T13:55:22.447Z,74357
2016-09-13T13:55:31.180Z,74360
2016-09-13T13:55:39.898Z,74364
2016-09-13T13:55:48.567Z,74355
2016-09-13T13:55:57.283Z,74347
2016-09-13T13:56:05.955Z,74344
2016-09-13T13:56:14.664Z,74340
2016-09-13T13:56:23.384Z,74339
2016-09-13T13:56:32.126Z,74338
2016-09-13T13:56:40.830Z,74338
2016-09-13T13:56:49.532Z,74340
2016-09-13T13:56:58.279Z,74340
2016-09-13T13:57:07.286Z,74341
2016-09-13T13:57:15.987Z,74337
2016-09-13T13:57:24.697Z,74340
2016-09-13T13:57:33.427Z,74341
2016-09-13T13:57:42.128Z,74335
2016-09-13T13:57:50.831Z,74340
2016-09-13T13:57:59.555Z,74339
2016-09-13T13:58:08.266Z,74336
2016-09-13T13:58:16.951Z,74336
2016-09-13T13:58:25.664Z,74335
2016-09-13T13:58:34.372Z,74334
2016-09-13T13:58:43.110Z,74335
2016-09-13T13:58:51.860Z,74334
2016-09-13T13:59:00.533Z,74334
2016-09-13T13:59:09.242Z,74332
2016-09-13T13:59:17.987Z,74333
2016-09-13T13:59:26.696Z,74335
2016-09-13T13:59:35.391Z,74333
2016-09-13T13:59:44.122Z,74333
2016-09-13T13:59:52.815Z,74335
2016-09-13T14:00:01.492Z,74335
2016-09-13T14:00:10.189Z,74335
2016-09-13T14:00:18.866Z,74335
2016-09-13T14:00:27.594Z,74338
2016-09-13T14:00:36.338Z,74335
2016-09-13T14:00:45.037Z,74333
2016-09-13T14:00:53.718Z,74331
2016-09-13T14:01:02.428Z,74337
2016-09-13T14:01:11.191Z,74334
2016-09-13T14:01:19.890Z,74332
2016-09-13T14:01:28.575Z,74336
2016-09-13T14:01:37.285Z,74332
2016-09-13T14:01:46.014Z,74335
2016-09-13T14:01:54.690Z,74335
2016-09-13T14:02:03.416Z,74335
2016-09-13T14:02:12.128Z,74336
2016-09-13T14:02:20.860Z,74335
2016-09-13T14:02:29.606Z,74332
2016-09-13T14:02:38.298Z,74332
2016-09-13T14:02:47.006Z,74333
2016-09-13T14:02:55.720Z,74331
2016-09-13T14:03:04.451Z,74331
2016-09-13T14:03:13.204Z,74329
2016-09-13T14:03:21.942Z,74334
2016-09-13T14:03:30.663Z,74332
2016-09-13T14:03:39.410Z,74331
2016-09-13T14:03:48.121Z,74331
2016-09-13T14:03:56.818Z,74332
2016-09-13T14:04:05.519Z,74332
2016-09-13T14:04:14.244Z,74336
2016-09-13T14:04:22.933Z,74332
2016-09-13T14:04:31.643Z,74332
2016-09-13T14:04:40.391Z,74333
2016-09-13T14:04:49.115Z,74332
2016-09-13T14:04:57.819Z,74333
2016-09-13T14:05:06.585Z,74335
2016-09-13T14:05:15.318Z,74334
2016-09-13T14:05:24.040Z,74337
2016-09-13T14:05:32.723Z,74335
2016-09-13T14:05:41.448Z,74337
2016-09-13T14:05:50.162Z,74339
2016-09-13T14:05:58.872Z,74336
2016-09-13T14:06:07.585Z,74336
2016-09-13T14:06:16.320Z,74341
2016-09-13T14:06:25.009Z,74349
2016-09-13T14:06:33.733Z,74352
2016-09-13T14:06:42.465Z,74355
2016-09-13T14:06:51.183Z,74345
2016-09-13T14:06:59.890Z,74341
2016-09-13T14:07:08.588Z,74334
2016-09-13T14:07:17.293Z,74335
2016-09-13T14:07:26.046Z,74336
2016-09-13T14:07:34.796Z,74332
2016-09-13T14:07:43.540Z,74333
2016-09-13T14:07:52.292Z,74331
2016-09-13T14:08:01.020Z,74332
2016-09-13T14:08:09.743Z,74332
2016-09-13T14:08:18.437Z,74331
2016-09-13T14:08:27.128Z,74335
2016-09-13T14:08:35.840Z,74329
2016-09-13T14:08:44.541Z,74335
2016-09-13T14:08:53.283Z,74335
2016-09-13T14:09:02.005Z,74337
2016-09-13T14:09:10.728Z,74332
2016-09-13T14:09:19.438Z,74334
2016-09-13T14:09:28.133Z,74337
2016-09-13T14:09:36.832Z,74333
2016-09-13T14:09:45.586Z,74332
2016-09-13T14:09:54.342Z,74334
2016-09-13T14:10:03.092Z,74339
2016-09-13T14:10:11.803Z,74331
2016-09-13T14:10:20.506Z,74331
2016-09-13T14:10:29.216Z,74332
2016-09-13T14:10:37.960Z,74336
2016-09-13T14:10:46.707Z,74334
2016-09-13T14:10:55.423Z,74335
2016-09-13T14:11:04.139Z,74335
2016-09-13T14:11:12.878Z,74336
2016-09-13T14:11:21.620Z,74336
2016-09-13T14:11:30.344Z,74332
2016-09-13T14:11:39.130Z,74332
2016-09-13T14:11:47.868Z,74334
2016-09-13T14:11:56.594Z,74333
2016-09-13T14:12:05.274Z,74331
2016-09-13T14:12:13.942Z,74331
2016-09-13T14:12:22.621Z,74335
2016-09-13T14:12:31.661Z,74332
2016-09-13T14:12:40.350Z,74330
2016-09-13T14:12:49.088Z,74329
2016-09-13T14:12:57.782Z,74333
2016-09-13T14:13:06.464Z,74334
2016-09-13T14:13:15.203Z,74335
2016-09-13T14:13:23.917Z,74331
2016-09-13T14:13:32.647Z,74335
2016-09-13T14:13:41.370Z,74338
2016-09-13T14:13:50.055Z,74337
2016-09-13T14:13:59.045Z,74336
2016-09-13T14:14:07.746Z,74339
2016-09-13T14:14:16.439Z,74338
2016-09-13T14:14:25.141Z,74334
2016-09-13T14:14:33.830Z,74328
2016-09-13T14:14:42.602Z,74335
2016-09-13T14:14:51.300Z,74337
2016-09-13T14:15:00.020Z,74336
2016-09-13T14:15:08.777Z,74331
2016-09-13T14:15:17.789Z,74340
2016-09-13T14:15:26.530Z,74334
2016-09-13T14:15:35.260Z,74333
2016-09-13T14:15:43.955Z,74336
2016-09-13T14:15:52.974Z,74336
2016-09-13T14:16:01.699Z,74337
2016-09-13T14:16:10.402Z,74337
2016-09-13T14:16:19.117Z,74336
2016-09-13T14:16:27.844Z,74338
2016-09-13T14:16:36.553Z,74337
2016-09-13T14:16:45.258Z,74334
2016-09-13T14:16:53.959Z,74335
2016-09-13T14:17:02.647Z,74332
2016-09-13T14:17:11.368Z,74334
2016-09-13T14:17:20.099Z,74336
2016-09-13T14:17:28.791Z,74336
2016-09-13T14:17:37.499Z,74335
2016-09-13T14:17:46.220Z,74337
2016-09-13T14:17:54.911Z,74332
2016-09-13T14:18:03.628Z,74332
2016-09-13T14:18:12.324Z,74332
2016-09-13T14:18:21.087Z,74332
2016-09-13T14:18:29.759Z,74334
2016-09-13T14:18:38.459Z,74336
2016-09-13T14:18:47.167Z,74336
2016-09-13T14:18:56.191Z,74333
2016-09-13T14:19:04.928Z,74338
2016-09-13T14:19:13.617Z,74333
2016-09-13T14:19:22.290Z,74331
2016-09-13T14:19:30.977Z,74335
2016-09-13T14:19:39.736Z,74334
2016-09-13T14:19:48.467Z,74334
2016-09-13T14:19:57.192Z,74335
2016-09-13T14:20:05.914Z,74330
2016-09-13T14:20:14.603Z,74328
2016-09-13T14:20:23.319Z,74333
2016-09-13T14:20:32.048Z,74332
2016-09-13T14:20:40.771Z,74330
2016-09-13T14:20:49.496Z,74330
2016-09-13T14:20:58.241Z,74330
2016-09-13T14:21:06.969Z,74328
2016-09-13T14:21:15.692Z,74326
2016-09-13T14:21:24.393Z,74328
2016-09-13T14:21:33.070Z,74329
2016-09-13T14:21:41.763Z,74329
2016-09-13T14:21:50.487Z,74332
2016-09-13T14:21:59.193Z,74334
2016-09-13T14:22:07.917Z,74335
2016-09-13T14:22:16.609Z,74330
2016-09-13T14:22:25.324Z,74330
2016-09-13T14:22:34.316Z,74331
2016-09-13T14:22:43.060Z,74331
2016-09-13T14:22:51.789Z,74328
2016-09-13T14:23:00.451Z,74333
2016-09-13T14:23:09.186Z,74333
2016-09-13T14:23:17.945Z,74332
2016-09-13T14:23:26.967Z,74331
2016-09-13T14:23:35.684Z,74331
2016-09-13T14:23:44.396Z,74327
2016-09-13T14:23:53.120Z,74330
2016-09-13T14:24:01.834Z,74329
2016-09-13T14:24:10.521Z,74329
2016-09-13T14:24:19.204Z,74329
2016-09-13T14:24:27.902Z,74330
2016-09-13T14:24:36.604Z,74337
2016-09-13T14:24:45.313Z,74331
2016-09-13T14:24:54.034Z,74328
2016-09-13T14:25:02.752Z,74328
2016-09-13T14:25:11.443Z,74334
2016-09-13T14:25:20.168Z,74337
2016-09-13T14:25:28.861Z,74332
2016-09-13T14:25:37.573Z,74331
2016-09-13T14:25:46.299Z,74335
2016-09-13T14:25:54.981Z,74341
2016-09-13T14:26:03.711Z,74335
2016-09-13T14:26:12.449Z,74331
2016-09-13T14:26:21.175Z,74331
2016-09-13T14:26:29.889Z,74335
2016-09-13T14:26:38.568Z,74336
2016-09-13T14:26:47.246Z,74333
2016-09-13T14:26:55.969Z,74332
2016-09-13T14:27:04.707Z,74327
2016-09-13T14:27:13.404Z,74332
2016-09-13T14:27:22.099Z,74332
2016-09-13T14:27:30.800Z,74333
2016-09-13T14:27:39.820Z,74334
2016-09-13T14:27:48.507Z,74327
2016-09-13T14:27:57.245Z,74327
2016-09-13T14:28:05.926Z,74329
2016-09-13T14:28:14.631Z,74332
2016-09-13T14:28:23.479Z,74334
2016-09-13T14:28:32.234Z,74333
2016-09-13T14:28:40.960Z,74326
2016-09-13T14:28:49.659Z,74327
2016-09-13T14:28:58.356Z,74330
2016-09-13T14:29:07.120Z,74329
2016-09-13T14:29:15.864Z,74324
2016-09-13T14:29:24.552Z,74324
2016-09-13T14:29:33.267Z,74327
2016-09-13T14:29:41.992Z,74330
2016-09-13T14:29:50.660Z,74329
2016-09-13T14:29:59.619Z,74330
2016-09-13T14:30:08.351Z,74322
2016-09-13T14:30:17.052Z,74324
2016-09-13T14:30:25.776Z,74328
2016-09-13T14:30:34.480Z,74330
2016-09-13T14:30:43.191Z,74325
2016-09-13T14:30:51.868Z,74323
2016-09-13T14:31:00.557Z,74325
2016-09-13T14:31:09.294Z,74326
2016-09-13T14:31:18.028Z,74330
2016-09-13T14:31:26.753Z,74324
2016-09-13T14:31:35.451Z,74324
2016-09-13T14:31:44.147Z,74326
2016-09-13T14:31:52.857Z,74328
2016-09-13T14:32:01.565Z,74325
2016-09-13T14:32:10.338Z,74328
2016-09-13T14:32:19.044Z,74329
2016-09-13T14:32:27.785Z,74329
2016-09-13T14:32:36.507Z,74327
2016-09-13T14:32:45.216Z,74326
2016-09-13T14:32:53.888Z,74327
2016-09-13T14:33:02.909Z,74328
2016-09-13T14:33:11.618Z,74330
2016-09-13T14:33:20.334Z,74330
2016-09-13T14:33:29.038Z,74331
2016-09-13T14:33:37.749Z,74328
2016-09-13T14:33:46.475Z,74330
2016-09-13T14:33:55.169Z,74326
2016-09-13T14:34:03.873Z,74327
2016-09-13T14:34:12.613Z,74331
2016-09-13T14:34:21.323Z,74327
2016-09-13T14:34:30.023Z,74327
2016-09-13T14:34:38.755Z,74323
2016-09-13T14:34:47.499Z,74329
2016-09-13T14:34:56.204Z,74330
2016-09-13T14:35:04.906Z,74325
2016-09-13T14:35:13.673Z,74324
2016-09-13T14:35:22.396Z,74329
2016-09-13T14:35:31.140Z,74328
2016-09-13T14:35:39.842Z,74328
2016-09-13T14:35:48.548Z,74328
2016-09-13T14:35:57.246Z,74329
2016-09-13T14:36:05.943Z,74330
2016-09-13T14:36:14.666Z,74327
2016-09-13T14:36:23.404Z,74333
2016-09-13T14:36:32.125Z,74333
2016-09-13T14:36:40.839Z,74325
2016-09-13T14:36:49.520Z,74325
2016-09-13T14:36:58.201Z,74329
2016-09-13T14:37:06.903Z,74332
2016-09-13T14:37:15.626Z,74329
2016-09-13T14:37:24.330Z,74329
2016-09-13T14:37:33.020Z,74334
2016-09-13T14:37:41.730Z,74328
2016-09-13T14:37:50.454Z,74326
2016-09-13T14:37:59.176Z,74329
2016-09-13T14:38:07.877Z,74330
2016-09-13T14:38:16.591Z,74327
2016-09-13T14:38:25.304Z,74325
2016-09-13T14:38:34.014Z,74331
2016-09-13T14:38:42.721Z,74325
2016-09-13T14:38:51.423Z,74325
2016-09-13T14:39:00.160Z,74329
2016-09-13T14:39:08.870Z,74327
2016-09-13T14:39:17.592Z,74330
2016-09-13T14:39:26.312Z,74326
2016-09-13T14:39:35.016Z,74329
2016-09-13T14:39:43.706Z,74328